Time;durP1;ratioP1;P1;durP2;ratioP2;P2;SDS_P1;SDS_P2;PMS_P1;PMS_P2;Temp;Humidity;BMP_temperature;BMP_pressure;BME280_temperature;BME280_humidity;BME280_pressure;Samples;Min_cycle;Max_cycle;Signal;HPM_P1;HPM_P2
2022/08/09 00:01:03;;;;;;;2.40;1.42;;;18.60;67.30;;;;;;5004791;28;20028;-68
2022/08/09 00:03:28;;;;;;;4.28;1.52;;;18.60;67.20;;;;;;5011657;28;20451;-69
2022/08/09 00:05:54;;;;;;;3.05;1.65;;;18.60;67.30;;;;;;5012121;28;20108;-68
2022/08/09 00:08:20;;;;;;;2.05;1.20;;;18.60;67.30;;;;;;5012434;28;20069;-69
2022/08/09 00:10:46;;;;;;;1.65;1.40;;;18.50;67.30;;;;;;5012325;28;20468;-68
2022/08/09 00:13:11;;;;;;;2.25;1.30;;;18.50;67.40;;;;;;5012681;28;20057;-68
2022/08/09 00:15:37;;;;;;;1.80;1.40;;;18.50;67.50;;;;;;5011898;28;20029;-67
2022/08/09 00:18:03;;;;;;;2.17;1.23;;;18.50;67.60;;;;;;5012230;28;20025;-68
2022/08/09 00:20:28;;;;;;;2.58;1.50;;;18.50;67.60;;;;;;5012077;28;20034;-68
2022/08/09 00:22:54;;;;;;;2.28;1.50;;;18.40;67.60;;;;;;5011879;28;20026;-67
2022/08/09 00:25:19;;;;;;;2.65;1.65;;;18.30;67.70;;;;;;5011614;28;20499;-67
2022/08/09 00:27:45;;;;;;;2.85;1.33;;;18.30;67.80;;;;;;5011424;28;20065;-69
2022/08/09 00:30:10;;;;;;;2.97;1.60;;;18.30;68.00;;;;;;5012051;28;20472;-67
2022/08/09 00:32:36;;;;;;;1.98;1.50;;;18.20;68.10;;;;;;5012357;28;20033;-66
2022/08/09 00:35:02;;;;;;;1.77;1.50;;;18.20;68.30;;;;;;5011822;28;20029;-67
2022/08/09 00:37:28;;;;;;;1.65;1.33;;;18.20;68.50;;;;;;5012227;28;20029;-67
2022/08/09 00:39:53;;;;;;;2.30;1.50;;;18.10;68.50;;;;;;5011929;28;20093;-68
2022/08/09 00:42:19;;;;;;;2.28;1.60;;;18.10;68.60;;;;;;5011205;28;20034;-67
2022/08/09 00:44:44;;;;;;;4.13;1.65;;;18.10;68.80;;;;;;5012151;28;20028;-67
2022/08/09 00:47:10;;;;;;;2.10;1.50;;;18.10;69.00;;;;;;5012294;28;20653;-67
2022/08/09 00:49:36;;;;;;;3.35;1.77;;;18.10;69.00;;;;;;5011339;28;20507;-67
2022/08/09 00:52:02;;;;;;;2.15;1.40;;;18.00;69.00;;;;;;5012570;28;20026;-71
2022/08/09 00:54:27;;;;;;;3.92;1.50;;;18.00;69.60;;;;;;5013164;28;20042;-68
2022/08/09 00:56:53;;;;;;;2.30;1.50;;;18.00;69.00;;;;;;5012061;28;20029;-66
2022/08/09 00:59:18;;;;;;;2.63;1.58;;;18.00;69.00;;;;;;5011953;28;20072;-65
2022/08/09 01:01:47;;;;;;;2.65;1.50;;;18.00;69.10;;;;;;5011795;28;20030;-67
2022/08/09 01:05:02;;;;;;;1.95;1.50;;;18.00;69.10;;;;;;5011670;28;20480;-66
2022/08/09 01:07:42;;;;;;;2.65;1.52;;;18.00;69.10;;;;;;5008334;28;20041;-66
2022/08/09 01:10:26;;;;;;;1.60;1.50;;;18.00;69.20;;;;;;4995183;28;20018;-66
2022/08/09 01:13:10;;;;;;;2.97;1.50;;;17.90;69.30;;;;;;5011854;28;20040;-66
2022/08/09 01:15:42;;;;;;;2.35;1.60;;;17.80;69.40;;;;;;5011206;28;20044;-67
2022/08/09 01:18:12;;;;;;;2.17;1.60;;;17.80;69.60;;;;;;5010047;28;20022;-66
2022/08/09 01:20:38;;;;;;;3.70;1.92;;;17.80;69.70;;;;;;5011292;28;20021;-67
2022/08/09 01:23:09;;;;;;;2.45;1.80;;;17.70;69.80;;;;;;5010041;28;20388;-68
2022/08/09 01:26:00;;;;;;;3.38;1.88;;;17.70;69.90;;;;;;5009924;28;20026;-67
2022/08/09 01:28:26;;;;;;;4.70;2.10;;;17.80;70.00;;;;;;5003860;28;20025;-67
2022/08/09 01:30:54;;;;;;;3.22;1.90;;;17.70;70.10;;;;;;5010234;28;20037;-67
2022/08/09 01:33:24;;;;;;;2.85;1.90;;;17.70;70.20;;;;;;5011582;28;20022;-69
2022/08/09 01:35:53;;;;;;;3.17;1.90;;;17.60;70.30;;;;;;5011577;28;20097;-68
2022/08/09 01:38:24;;;;;;;3.08;2.20;;;17.60;70.30;;;;;;5010780;28;20029;-66
2022/08/09 01:41:22;;;;;;;2.30;1.80;;;17.60;70.50;;;;;;5010127;28;20115;-67
2022/08/09 01:43:51;;;;;;;2.53;2.00;;;17.60;70.40;;;;;;5011088;28;20085;-67
2022/08/09 01:46:22;;;;;;;5.03;2.20;;;17.60;70.60;;;;;;5010823;28;20030;-66
2022/08/09 01:48:49;;;;;;;2.22;1.88;;;17.50;70.90;;;;;;5010345;28;20034;-66
2022/08/09 01:51:17;;;;;;;3.97;2.00;;;17.50;70.90;;;;;;5007372;28;20101;-67
2022/08/09 01:53:43;;;;;;;2.50;1.92;;;17.50;71.00;;;;;;5009459;28;20734;-65
2022/08/09 01:56:11;;;;;;;7.30;4.40;;;17.40;71.10;;;;;;5010047;28;20065;-66
2022/08/09 01:58:37;;;;;;;3.67;3.00;;;17.40;71.30;;;;;;5010597;28;20071;-66
2022/08/09 02:01:04;;;;;;;4.30;2.75;;;17.40;71.40;;;;;;5010145;28;20046;-67
2022/08/09 02:03:31;;;;;;;4.05;2.50;;;17.30;71.60;;;;;;5010434;28;20507;-66
2022/08/09 02:05:59;;;;;;;2.50;2.20;;;17.30;71.80;;;;;;5010512;28;20022;-66
2022/08/09 02:08:26;;;;;;;3.22;2.60;;;17.20;71.90;;;;;;5009934;28;20025;-66
2022/08/09 02:10:54;;;;;;;3.95;2.42;;;17.30;72.00;;;;;;5009702;28;21340;-67
2022/08/09 02:13:22;;;;;;;3.00;2.10;;;17.20;72.00;;;;;;5004992;28;20036;-67
2022/08/09 02:15:50;;;;;;;2.88;2.15;;;17.20;72.00;;;;;;5008771;28;20026;-68
2022/08/09 02:18:21;;;;;;;3.25;2.33;;;17.20;72.10;;;;;;5010256;28;20058;-66
2022/08/09 02:20:51;;;;;;;4.28;2.50;;;17.20;72.10;;;;;;5010245;28;20057;-66
2022/08/09 02:23:42;;;;;;;2.65;2.30;;;17.20;72.10;;;;;;5009277;28;20021;-66
2022/08/09 02:26:10;;;;;;;3.20;2.80;;;17.20;72.40;;;;;;5009368;28;20036;-67
2022/08/09 02:28:43;;;;;;;4.22;3.08;;;17.20;72.30;;;;;;5008983;28;20049;-67
2022/08/09 02:31:17;;;;;;;3.95;2.53;;;17.20;72.50;;;;;;5008790;28;20041;-66
2022/08/09 02:33:46;;;;;;;2.75;2.30;;;17.20;72.60;;;;;;5005807;28;20497;-68
2022/08/09 02:36:18;;;;;;;2.58;2.30;;;17.20;72.60;;;;;;5010047;28;20102;-66
2022/08/09 02:38:53;;;;;;;3.20;2.85;;;17.10;72.70;;;;;;5010223;28;20030;-66
2022/08/09 02:41:30;;;;;;;4.82;2.78;;;17.10;72.80;;;;;;5009816;28;20377;-68
2022/08/09 02:44:02;;;;;;;4.07;2.60;;;17.10;73.00;;;;;;5010614;28;20109;-69
2022/08/09 02:46:29;;;;;;;2.42;2.22;;;17.00;73.00;;;;;;5010218;28;20099;-70
2022/08/09 02:49:06;;;;;;;2.58;2.30;;;17.10;73.10;;;;;;5008805;28;20041;-69
2022/08/09 02:51:35;;;;;;;5.53;2.90;;;17.10;73.10;;;;;;5009698;28;20033;-69
2022/08/09 02:54:03;;;;;;;3.45;2.40;;;17.00;73.10;;;;;;5007604;28;20022;-69
2022/08/09 02:56:33;;;;;;;3.03;2.47;;;17.00;73.00;;;;;;5010167;28;20026;-70
2022/08/09 02:59:02;;;;;;;3.65;2.55;;;17.00;73.10;;;;;;5010220;28;20037;-69
2022/08/09 03:01:30;;;;;;;3.72;2.63;;;17.00;73.10;;;;;;5009917;28;20026;-69
2022/08/09 03:03:57;;;;;;;3.55;2.67;;;17.00;73.20;;;;;;5010476;28;20029;-69
2022/08/09 03:06:24;;;;;;;3.53;2.95;;;16.90;73.20;;;;;;5013830;28;20025;-69
2022/08/09 03:08:51;;;;;;;4.22;2.85;;;16.90;73.30;;;;;;5014405;28;20018;-69
2022/08/09 03:11:20;;;;;;;4.03;2.88;;;16.90;73.40;;;;;;5013732;28;20026;-68
2022/08/09 03:13:47;;;;;;;5.30;2.85;;;16.80;73.50;;;;;;5013131;28;20026;-70
2022/08/09 03:16:17;;;;;;;3.50;3.08;;;16.80;73.60;;;;;;5013621;28;20058;-70
2022/08/09 03:18:44;;;;;;;3.50;2.60;;;16.80;73.70;;;;;;5013587;28;20031;-70
2022/08/09 03:21:10;;;;;;;4.00;2.90;;;16.80;73.70;;;;;;5013602;28;20014;-68
2022/08/09 03:23:36;;;;;;;3.22;2.53;;;16.80;73.70;;;;;;5013141;28;20037;-66
2022/08/09 03:26:02;;;;;;;3.33;2.80;;;16.80;73.70;;;;;;5013370;28;20021;-68
2022/08/09 03:28:29;;;;;;;5.25;3.45;;;16.70;73.80;;;;;;5013062;28;20084;-66
2022/08/09 03:30:56;;;;;;;4.20;3.47;;;16.60;75.00;;;;;;5013221;28;20080;-67
2022/08/09 03:33:23;;;;;;;5.38;3.47;;;16.50;75.00;;;;;;5011744;28;20117;-66
2022/08/09 03:35:52;;;;;;;3.80;2.83;;;16.50;75.10;;;;;;5012957;28;20100;-67
2022/08/09 03:38:18;;;;;;;4.22;3.05;;;16.50;75.20;;;;;;5011959;28;20025;-68
2022/08/09 03:40:43;;;;;;;3.90;2.88;;;16.50;75.10;;;;;;5012507;28;20022;-68
2022/08/09 03:43:09;;;;;;;4.63;2.90;;;16.50;75.10;;;;;;5012848;28;20010;-68
2022/08/09 03:45:35;;;;;;;3.13;2.63;;;16.40;75.00;;;;;;5012773;28;20116;-67
2022/08/09 03:48:01;;;;;;;5.07;3.40;;;16.40;75.10;;;;;;5012985;28;20049;-68
2022/08/09 03:50:28;;;;;;;4.68;3.70;;;16.40;75.60;;;;;;5012756;28;20461;-69
2022/08/09 03:52:56;;;;;;;7.60;4.00;;;16.40;75.90;;;;;;5012948;28;20029;-70
2022/08/09 03:55:22;;;;;;;3.88;3.47;;;16.30;76.20;;;;;;5011551;28;20026;-69
2022/08/09 03:57:49;;;;;;;4.75;3.60;;;16.30;76.20;;;;;;5012538;28;20558;-68
2022/08/09 04:00:15;;;;;;;5.05;3.72;;;16.30;76.30;;;;;;5012163;28;20036;-69
2022/08/09 04:02:42;;;;;;;4.15;3.75;;;16.30;76.30;;;;;;5012783;28;20026;-67
2022/08/09 04:05:09;;;;;;;4.30;3.63;;;16.30;76.30;;;;;;5010874;28;20033;-67
2022/08/09 04:07:35;;;;;;;5.13;3.70;;;16.30;76.40;;;;;;5009574;28;20104;-67
2022/08/09 04:10:01;;;;;;;5.25;3.47;;;16.30;76.30;;;;;;5012394;28;20113;-67
2022/08/09 04:12:47;;;;;;;5.65;3.92;;;16.30;76.40;;;;;;5012708;28;20026;-69
2022/08/09 04:15:14;;;;;;;3.30;3.00;;;16.40;76.50;;;;;;5012064;28;20041;-68
2022/08/09 04:17:41;;;;;;;5.88;3.70;;;16.40;76.40;;;;;;5012576;28;20022;-68
2022/08/09 04:20:08;;;;;;;4.72;4.13;;;16.40;76.30;;;;;;5004030;28;20010;-67
2022/08/09 04:22:34;;;;;;;5.20;3.92;;;16.40;76.50;;;;;;5009067;28;20487;-68
2022/08/09 04:25:00;;;;;;;4.63;3.35;;;16.40;76.60;;;;;;5012547;28;20053;-67
2022/08/09 04:27:26;;;;;;;4.57;3.50;;;16.40;76.60;;;;;;5011600;28;20480;-68
2022/08/09 04:29:51;;;;;;;7.40;5.75;;;16.40;76.50;;;;;;5012571;28;20034;-67
2022/08/09 04:32:17;;;;;;;4.95;4.00;;;16.30;77.60;;;;;;5010660;28;20026;-68
2022/08/09 04:34:43;;;;;;;4.13;3.35;;;16.30;77.50;;;;;;5011074;28;20493;-68
2022/08/09 04:37:08;;;;;;;5.38;3.55;;;16.30;77.30;;;;;;4997415;28;20444;-67
2022/08/09 04:39:34;;;;;;;4.93;3.70;;;16.30;77.00;;;;;;5010687;28;20452;-66
2022/08/09 04:41:59;;;;;;;4.78;3.30;;;16.30;77.00;;;;;;5011272;28;20096;-67
2022/08/09 04:44:25;;;;;;;5.40;3.90;;;16.30;76.90;;;;;;5011717;28;20076;-67
2022/08/09 04:46:51;;;;;;;4.40;3.42;;;16.30;76.90;;;;;;5010659;28;20037;-68
2022/08/09 04:49:17;;;;;;;5.90;4.38;;;16.30;76.70;;;;;;5012164;28;20456;-66
2022/08/09 04:51:42;;;;;;;4.57;3.38;;;16.40;76.80;;;;;;5011619;28;20030;-66
2022/08/09 04:54:08;;;;;;;4.72;3.45;;;16.30;76.80;;;;;;5009511;28;20029;-66
2022/08/09 04:56:33;;;;;;;4.57;4.07;;;16.30;76.80;;;;;;5011285;28;20034;-67
2022/08/09 04:58:59;;;;;;;5.28;3.80;;;16.30;76.90;;;;;;5012783;28;20481;-66
2022/08/09 05:01:25;;;;;;;5.85;3.70;;;16.30;76.90;;;;;;5026258;28;20098;-68
2022/08/09 05:03:50;;;;;;;6.18;3.50;;;16.30;76.80;;;;;;5019726;28;20225;-67
2022/08/09 05:06:16;;;;;;;5.75;3.95;;;16.40;76.80;;;;;;5010841;28;20018;-69
2022/08/09 05:08:41;;;;;;;4.85;4.10;;;16.40;76.80;;;;;;5011794;28;20036;-69
2022/08/09 05:11:07;;;;;;;5.55;4.07;;;16.40;76.80;;;;;;5012557;28;20626;-68
2022/08/09 05:13:33;;;;;;;4.85;3.95;;;16.40;76.70;;;;;;5013083;28;20092;-68
2022/08/09 05:15:59;;;;;;;6.18;4.70;;;16.40;76.70;;;;;;5009209;28;20072;-68
2022/08/09 05:18:32;;;;;;;5.22;3.70;;;16.50;76.90;;;;;;5006757;28;20499;-67
2022/08/09 05:20:58;;;;;;;6.75;4.25;;;16.40;76.90;;;;;;5003667;28;20092;-67
2022/08/09 05:23:23;;;;;;;4.75;3.78;;;16.40;77.40;;;;;;5011953;28;20025;-67
2022/08/09 05:25:49;;;;;;;4.53;3.63;;;16.50;77.30;;;;;;5011577;28;20475;-67
2022/08/09 05:28:15;;;;;;;5.32;3.70;;;16.50;77.20;;;;;;5011259;28;20030;-67
2022/08/09 05:30:41;;;;;;;5.20;3.90;;;16.70;77.50;;;;;;5011354;28;20400;-66
2022/08/09 05:33:06;;;;;;;6.00;3.50;;;17.70;76.60;;;;;;5011513;28;20100;-66
2022/08/09 05:35:32;;;;;;;4.97;3.53;;;19.00;74.10;;;;;;5010761;28;20052;-65
2022/08/09 05:37:58;;;;;;;4.55;3.50;;;20.20;70.00;;;;;;5011068;28;20116;-65
2022/08/09 05:40:25;;;;;;;4.65;3.88;;;21.10;67.10;;;;;;5009944;28;20038;-66
2022/08/09 05:42:51;;;;;;;4.10;3.53;;;21.80;64.50;;;;;;5010999;28;20025;-65
2022/08/09 05:45:16;;;;;;;4.78;3.40;;;22.40;62.90;;;;;;5021200;28;20022;-66
2022/08/09 05:47:42;;;;;;;3.75;3.00;;;23.20;61.00;;;;;;5017358;28;20579;-66
2022/08/09 05:50:08;;;;;;;3.30;2.70;;;23.90;59.40;;;;;;4996277;28;20533;-66
2022/08/09 05:52:34;;;;;;;3.38;2.55;;;24.60;57.80;;;;;;5006244;28;20034;-67
2022/08/09 05:54:59;;;;;;;3.88;3.13;;;25.00;56.50;;;;;;5000902;28;20026;-66
2022/08/09 05:57:25;;;;;;;3.67;2.80;;;25.40;55.20;;;;;;5006912;28;20040;-67
2022/08/09 05:59:50;;;;;;;3.25;2.53;;;25.60;54.90;;;;;;5012191;28;20341;-67
2022/08/09 06:02:16;;;;;;;3.78;2.35;;;25.90;54.00;;;;;;5003572;28;20437;-67
2022/08/09 06:04:41;;;;;;;4.03;2.75;;;26.50;53.10;;;;;;5003099;28;20037;-67
2022/08/09 06:07:07;;;;;;;4.00;2.15;;;26.70;52.10;;;;;;5009804;28;20068;-66
2022/08/09 06:09:33;;;;;;;2.67;2.47;;;27.00;51.40;;;;;;5004676;28;20022;-66
2022/08/09 06:11:58;;;;;;;3.10;2.28;;;27.40;50.80;;;;;;5001273;28;20038;-66
2022/08/09 06:14:24;;;;;;;3.28;2.47;;;27.70;50.10;;;;;;4997650;28;20038;-66
2022/08/09 06:16:49;;;;;;;3.67;2.53;;;27.70;49.30;;;;;;5008766;28;20076;-66
2022/08/09 06:19:15;;;;;;;3.03;2.10;;;28.10;48.90;;;;;;5009761;28;20500;-66
2022/08/09 06:21:41;;;;;;;2.65;2.33;;;28.50;48.40;;;;;;5009553;28;20029;-66
2022/08/09 06:24:06;;;;;;;3.92;2.65;;;28.90;47.40;;;;;;5004376;28;20025;-66
2022/08/09 06:26:33;;;;;;;3.22;1.77;;;29.10;47.00;;;;;;5008683;28;20033;-67
2022/08/09 06:28:59;;;;;;;2.85;2.00;;;29.40;46.60;;;;;;5009325;28;20030;-67
2022/08/09 06:31:25;;;;;;;3.67;2.03;;;29.70;46.10;;;;;;5008056;28;20503;-68
2022/08/09 06:33:50;;;;;;;2.90;2.17;;;29.80;45.00;;;;;;5009111;28;20030;-66
2022/08/09 06:36:16;;;;;;;2.38;1.88;;;29.60;45.30;;;;;;5008391;28;20037;-67
2022/08/09 06:38:42;;;;;;;4.13;2.10;;;29.70;45.20;;;;;;5004031;28;20030;-66
2022/08/09 06:41:08;;;;;;;2.55;1.73;;;29.80;45.10;;;;;;5008300;28;20044;-67
2022/08/09 06:43:34;;;;;;;3.13;1.88;;;29.90;45.10;;;;;;5011361;28;20493;-66
2022/08/09 06:45:59;;;;;;;2.17;1.73;;;29.90;44.90;;;;;;5013249;28;20025;-66
2022/08/09 06:48:25;;;;;;;1.65;1.45;;;30.00;44.80;;;;;;5012197;28;20080;-66
2022/08/09 06:50:52;;;;;;;3.40;1.83;;;29.50;45.60;;;;;;5012872;28;20072;-66
2022/08/09 06:53:18;;;;;;;2.50;1.85;;;29.10;45.60;;;;;;5012514;28;20010;-67
2022/08/09 06:55:43;;;;;;;3.45;2.03;;;29.20;45.90;;;;;;5012747;28;20037;-67
2022/08/09 06:58:08;;;;;;;3.17;1.90;;;29.10;45.60;;;;;;5013015;28;20030;-67
2022/08/09 07:00:35;;;;;;;2.00;1.70;;;29.10;46.10;;;;;;5011321;28;20022;-66
2022/08/09 07:03:00;;;;;;;2.42;1.50;;;29.10;46.20;;;;;;5011550;28;20022;-66
2022/08/09 07:05:26;;;;;;;2.00;1.30;;;29.40;46.00;;;;;;5013210;28;20044;-66
2022/08/09 07:07:53;;;;;;;2.20;1.63;;;29.50;45.90;;;;;;5013609;28;20040;-66
2022/08/09 07:10:20;;;;;;;2.45;1.60;;;29.50;45.70;;;;;;5012694;28;20024;-66
2022/08/09 07:12:45;;;;;;;1.83;1.35;;;29.70;45.40;;;;;;5012805;28;20638;-66
2022/08/09 07:15:11;;;;;;;2.05;1.55;;;29.90;45.20;;;;;;5012867;28;20024;-66
2022/08/09 07:17:36;;;;;;;2.10;1.40;;;30.10;44.70;;;;;;5006583;28;20022;-66
2022/08/09 07:20:03;;;;;;;2.95;1.45;;;30.20;44.30;;;;;;5010523;28;20105;-67
2022/08/09 07:22:28;;;;;;;3.33;1.20;;;30.10;44.00;;;;;;5009807;28;20101;-66
2022/08/09 07:24:54;;;;;;;2.75;1.40;;;30.30;44.20;;;;;;5012086;28;20098;-66
2022/08/09 07:27:19;;;;;;;2.40;1.50;;;30.50;43.80;;;;;;5013428;28;20437;-66
2022/08/09 07:29:45;;;;;;;1.50;1.10;;;30.30;43.60;;;;;;5013603;28;20448;-66
2022/08/09 07:32:10;;;;;;;2.65;1.10;;;30.20;43.90;;;;;;5017247;28;20381;-66
2022/08/09 07:34:36;;;;;;;2.38;1.20;;;30.10;43.80;;;;;;5000900;28;20022;-67
2022/08/09 07:37:02;;;;;;;1.33;1.10;;;29.90;44.30;;;;;;5011882;28;20173;-66
2022/08/09 07:39:27;;;;;;;1.77;1.20;;;29.90;44.40;;;;;;5009466;28;20072;-66
2022/08/09 07:41:53;;;;;;;2.55;1.20;;;29.80;44.80;;;;;;5009042;28;20072;-66
2022/08/09 07:44:18;;;;;;;1.98;1.08;;;29.80;45.10;;;;;;5004739;28;20390;-66
2022/08/09 07:46:46;;;;;;;2.78;1.55;;;29.70;45.30;;;;;;5013006;28;20559;-66
2022/08/09 07:49:12;;;;;;;2.33;1.30;;;29.40;45.70;;;;;;5012551;28;20513;-66
2022/08/09 07:51:37;;;;;;;1.83;1.00;;;28.40;46.20;;;;;;5006953;28;20108;-66
2022/08/09 07:54:03;;;;;;;1.52;0.90;;;28.10;47.90;;;;;;5008590;28;20026;-67
2022/08/09 07:56:29;;;;;;;1.70;1.08;;;27.90;48.70;;;;;;5011763;28;20044;-66
2022/08/09 07:58:54;;;;;;;1.15;0.85;;;27.60;49.10;;;;;;5006823;28;20025;-67
2022/08/09 08:01:20;;;;;;;1.45;1.00;;;27.20;48.80;;;;;;5009699;28;20026;-66
2022/08/09 08:03:45;;;;;;;3.08;1.17;;;26.90;49.20;;;;;;5012232;28;20034;-67
2022/08/09 08:06:11;;;;;;;2.45;1.50;;;26.30;49.40;;;;;;5011853;28;20053;-68
2022/08/09 08:08:37;;;;;;;1.95;1.15;;;25.60;49.40;;;;;;5011120;28;20064;-66
2022/08/09 08:11:02;;;;;;;1.90;0.90;;;25.00;50.90;;;;;;5010584;28;20384;-66
2022/08/09 08:13:28;;;;;;;2.88;1.00;;;24.80;51.50;;;;;;5008165;28;20555;-67
2022/08/09 08:15:53;;;;;;;2.20;1.20;;;24.60;51.60;;;;;;5011527;28;20034;-66
2022/08/09 08:18:19;;;;;;;2.60;0.88;;;24.40;51.50;;;;;;4997748;28;20026;-67
2022/08/09 08:20:45;;;;;;;1.42;0.90;;;24.40;51.70;;;;;;4992846;28;20023;-66
2022/08/09 08:23:11;;;;;;;1.80;1.00;;;24.50;52.00;;;;;;5006200;28;20030;-67
2022/08/09 08:25:36;;;;;;;1.58;0.93;;;24.60;51.90;;;;;;5007523;28;20546;-67
2022/08/09 08:28:02;;;;;;;2.78;1.00;;;24.70;51.30;;;;;;5010993;28;20117;-66
2022/08/09 08:30:28;;;;;;;1.73;0.90;;;24.80;51.00;;;;;;5007914;28;20030;-67
2022/08/09 08:32:55;;;;;;;1.52;0.90;;;24.80;50.80;;;;;;5000478;28;20440;-65
2022/08/09 08:35:21;;;;;;;1.98;0.93;;;24.60;50.00;;;;;;4999879;28;20030;-66
2022/08/09 08:37:46;;;;;;;0.95;0.73;;;24.60;50.50;;;;;;5004957;28;20029;-65
2022/08/09 08:40:13;;;;;;;1.77;0.90;;;24.70;50.90;;;;;;4999609;28;20049;-66
2022/08/09 08:42:39;;;;;;;1.40;0.80;;;24.80;50.90;;;;;;5002325;28;20041;-66
2022/08/09 08:45:05;;;;;;;1.38;0.70;;;24.90;50.60;;;;;;4997666;28;20022;-67
2022/08/09 08:47:31;;;;;;;1.65;0.77;;;25.00;50.30;;;;;;5002584;28;20032;-66
2022/08/09 08:49:59;;;;;;;1.77;0.80;;;24.90;49.90;;;;;;5000400;28;20593;-67
2022/08/09 08:52:27;;;;;;;1.75;0.77;;;24.90;49.80;;;;;;5000859;28;20021;-66
2022/08/09 08:54:55;;;;;;;0.70;0.70;;;25.00;49.70;;;;;;5007222;28;20026;-66
2022/08/09 08:57:21;;;;;;;1.58;0.70;;;25.10;49.40;;;;;;5000787;28;20391;-66
2022/08/09 08:59:49;;;;;;;1.95;1.05;;;25.10;49.30;;;;;;5002669;28;20045;-66
2022/08/09 09:02:26;;;;;;;2.47;0.80;;;25.10;49.20;;;;;;4999866;28;20027;-66
2022/08/09 09:04:54;;;;;;;2.65;0.80;;;25.20;48.90;;;;;;5002076;28;20053;-67
2022/08/09 09:07:20;;;;;;;1.25;1.00;;;25.30;48.80;;;;;;5000837;28;20057;-66
2022/08/09 09:09:47;;;;;;;1.65;0.80;;;25.50;48.90;;;;;;5003693;28;20109;-66
2022/08/09 09:12:15;;;;;;;2.25;0.70;;;25.50;48.30;;;;;;5002978;28;20033;-66
2022/08/09 09:14:43;;;;;;;1.40;0.77;;;25.50;48.30;;;;;;5000557;28;20034;-66
2022/08/09 09:17:09;;;;;;;1.20;0.60;;;25.50;48.10;;;;;;5002423;28;20022;-66
2022/08/09 09:19:34;;;;;;;0.70;0.63;;;25.50;48.30;;;;;;5002277;28;20512;-67
2022/08/09 09:22:06;;;;;;;1.35;0.80;;;25.60;48.00;;;;;;5000855;28;20029;-67
2022/08/09 09:24:38;;;;;;;1.23;0.80;;;25.60;47.80;;;;;;5004042;28;20574;-66
2022/08/09 09:27:05;;;;;;;2.38;0.80;;;25.40;47.20;;;;;;5006582;28;20475;-67
2022/08/09 09:29:33;;;;;;;1.25;0.80;;;25.40;47.60;;;;;;5005450;28;20093;-65
2022/08/09 09:31:59;;;;;;;1.58;0.70;;;25.50;47.60;;;;;;5005984;28;20029;-67
2022/08/09 09:34:25;;;;;;;1.27;0.80;;;25.50;47.60;;;;;;5007271;28;20018;-66
2022/08/09 09:36:51;;;;;;;1.52;0.60;;;25.50;47.40;;;;;;5007439;28;20038;-66
2022/08/09 09:39:17;;;;;;;1.02;0.70;;;25.60;47.20;;;;;;5006205;28;20026;-67
2022/08/09 09:41:43;;;;;;;2.88;0.80;;;25.50;46.00;;;;;;5006161;28;20048;-66
2022/08/09 09:44:09;;;;;;;1.42;0.60;;;25.30;46.30;;;;;;5006455;28;20026;-67
2022/08/09 09:46:39;;;;;;;1.15;0.60;;;25.40;46.80;;;;;;5006564;28;20053;-66
2022/08/09 09:49:06;;;;;;;0.90;0.50;;;25.40;46.60;;;;;;5003977;28;20029;-66
2022/08/09 09:51:33;;;;;;;1.35;0.60;;;25.50;46.80;;;;;;5004126;28;20833;-68
2022/08/09 09:54:11;;;;;;;1.40;0.77;;;25.60;46.50;;;;;;5002734;28;20034;-67
2022/08/09 09:56:42;;;;;;;1.55;0.63;;;25.70;46.20;;;;;;5006421;28;20144;-67
2022/08/09 09:59:10;;;;;;;1.52;0.70;;;25.80;46.40;;;;;;5005410;28;20029;-67
2022/08/09 10:01:36;;;;;;;0.68;0.60;;;25.80;46.00;;;;;;5004037;28;20145;-67
2022/08/09 10:04:03;;;;;;;1.85;0.70;;;25.90;46.10;;;;;;5003524;28;20022;-66
2022/08/09 10:06:40;;;;;;;1.40;0.60;;;25.80;46.00;;;;;;5003587;28;20120;-66
2022/08/09 10:09:07;;;;;;;1.00;0.60;;;25.90;46.30;;;;;;5001553;28;20150;-66
2022/08/09 10:11:34;;;;;;;1.55;0.70;;;26.00;46.00;;;;;;5002704;28;20030;-69
2022/08/09 10:14:01;;;;;;;1.08;0.50;;;26.10;45.50;;;;;;5002608;28;20034;-67
2022/08/09 10:16:35;;;;;;;0.63;0.60;;;26.10;45.30;;;;;;5004937;28;20104;-67
2022/08/09 10:19:06;;;;;;;1.95;0.70;;;26.20;45.30;;;;;;5005345;28;20022;-67
2022/08/09 10:21:43;;;;;;;0.93;0.63;;;26.30;45.10;;;;;;5003726;28;20017;-67
2022/08/09 10:24:10;;;;;;;1.13;0.40;;;26.30;44.80;;;;;;5004805;28;20199;-67
2022/08/09 10:26:36;;;;;;;1.23;0.60;;;26.40;45.10;;;;;;5003680;28;20092;-67
2022/08/09 10:29:04;;;;;;;1.55;0.65;;;26.30;44.70;;;;;;5005327;28;20132;-67
2022/08/09 10:31:30;;;;;;;1.38;0.60;;;26.40;44.90;;;;;;5003214;28;20953;-66
2022/08/09 10:33:55;;;;;;;0.70;0.68;;;26.50;44.90;;;;;;5003174;28;20152;-65
2022/08/09 10:36:22;;;;;;;0.95;0.60;;;26.40;44.10;;;;;;5005118;28;20026;-66
2022/08/09 10:38:47;;;;;;;0.68;0.50;;;26.30;43.60;;;;;;5005553;28;20040;-66
2022/08/09 10:41:14;;;;;;;1.27;0.63;;;26.20;43.00;;;;;;5002222;28;20030;-67
2022/08/09 10:43:48;;;;;;;2.55;0.50;;;26.10;42.90;;;;;;5005352;28;20030;-67
2022/08/09 10:46:35;;;;;;;0.93;0.50;;;25.90;43.40;;;;;;5006235;28;20497;-67
2022/08/09 10:49:36;;;;;;;0.93;0.60;;;25.90;43.50;;;;;;5003125;28;20480;-67
2022/08/09 10:52:12;;;;;;;1.08;0.63;;;25.90;43.30;;;;;;4993850;28;20045;-67
2022/08/09 10:54:37;;;;;;;0.98;0.50;;;25.80;44.20;;;;;;5000672;28;20196;-67
2022/08/09 10:57:09;;;;;;;1.05;0.52;;;26.00;44.10;;;;;;5002274;28;20572;-67
2022/08/09 10:59:37;;;;;;;1.77;0.50;;;26.20;43.80;;;;;;5003633;28;20124;-67
2022/08/09 11:02:06;;;;;;;1.42;0.70;;;26.30;42.80;;;;;;5003425;28;20022;-67
2022/08/09 11:04:32;;;;;;;2.55;0.75;;;26.10;42.70;;;;;;5003202;28;20026;-67
2022/08/09 11:06:58;;;;;;;1.00;0.47;;;25.90;43.00;;;;;;5005450;28;20026;-68
2022/08/09 11:09:42;;;;;;;1.02;0.70;;;26.10;43.30;;;;;;5000312;28;20109;-67
2022/08/09 11:12:16;;;;;;;1.33;0.70;;;26.20;43.00;;;;;;5000599;28;20065;-68
2022/08/09 11:15:17;;;;;;;1.15;0.90;;;26.30;43.20;;;;;;5003141;28;20037;-67
2022/08/09 11:17:45;;;;;;;0.60;0.60;;;26.60;42.90;;;;;;5002194;28;20068;-68
2022/08/09 11:20:11;;;;;;;1.15;0.70;;;26.50;42.00;;;;;;5004074;28;20053;-68
2022/08/09 11:22:42;;;;;;;0.75;0.50;;;26.30;42.60;;;;;;5000017;28;20502;-68
2022/08/09 11:25:32;;;;;;;0.40;0.40;;;26.30;43.10;;;;;;5002556;28;20472;-68
2022/08/09 11:27:58;;;;;;;0.63;0.60;;;26.50;43.00;;;;;;5004874;28;20392;-67
2022/08/09 11:30:26;;;;;;;0.95;0.60;;;26.80;42.80;;;;;;5007193;28;20033;-68
2022/08/09 11:33:07;;;;;;;1.70;0.57;;;26.90;42.30;;;;;;5007040;28;20038;-68
2022/08/09 11:35:38;;;;;;;0.75;0.50;;;26.80;41.60;;;;;;5004073;28;20721;-68
2022/08/09 11:38:19;;;;;;;0.77;0.50;;;27.00;41.90;;;;;;5004501;28;20033;-68
2022/08/09 11:40:45;;;;;;;0.40;0.40;;;27.20;41.70;;;;;;5004592;28;20026;-68
2022/08/09 11:43:16;;;;;;;0.88;0.50;;;27.20;40.90;;;;;;5006469;28;20040;-67
2022/08/09 11:46:02;;;;;;;1.52;0.50;;;27.20;40.80;;;;;;5004295;28;20037;-67
2022/08/09 11:48:29;;;;;;;1.67;0.60;;;27.30;41.00;;;;;;5005040;28;20026;-68
2022/08/09 11:51:01;;;;;;;1.48;0.40;;;27.20;40.80;;;;;;5002733;28;20021;-68
2022/08/09 11:53:37;;;;;;;0.80;0.40;;;27.30;41.10;;;;;;5004842;28;20091;-69
2022/08/09 11:56:15;;;;;;;1.38;0.52;;;27.40;41.00;;;;;;5004024;28;20030;-67
2022/08/09 11:58:45;;;;;;;0.77;0.60;;;27.60;40.90;;;;;;5003494;28;20117;-67
2022/08/09 12:01:13;;;;;;;1.67;0.45;;;27.60;40.30;;;;;;5002032;28;20018;-67
2022/08/09 12:03:40;;;;;;;0.45;0.45;;;27.70;40.50;;;;;;5003984;28;20041;-67
2022/08/09 12:06:19;;;;;;;0.35;0.30;;;27.90;40.10;;;;;;5004244;28;20484;-67
2022/08/09 12:08:55;;;;;;;3.05;0.60;;;28.00;39.90;;;;;;5005513;28;20080;-68
2022/08/09 12:11:24;;;;;;;0.40;0.40;;;28.10;39.90;;;;;;5003483;28;20026;-68
2022/08/09 12:13:56;;;;;;;1.25;0.50;;;28.20;39.80;;;;;;5003488;28;20030;-69
2022/08/09 12:16:28;;;;;;;0.52;0.50;;;28.30;39.70;;;;;;4998193;28;20034;-70
2022/08/09 12:18:54;;;;;;;0.88;0.50;;;28.40;39.20;;;;;;5005282;28;20029;-68
2022/08/09 12:21:38;;;;;;;0.47;0.40;;;28.40;39.30;;;;;;5004596;28;20474;-68
2022/08/09 12:24:06;;;;;;;2.05;0.40;;;28.40;39.30;;;;;;4998821;28;20717;-70
2022/08/09 12:26:41;;;;;;;1.00;0.50;;;28.50;39.20;;;;;;5002684;28;20160;-68
2022/08/09 12:29:07;;;;;;;0.73;0.45;;;28.70;39.10;;;;;;5001897;28;20037;-68
2022/08/09 12:31:33;;;;;;;1.60;0.50;;;28.70;39.10;;;;;;5004055;28;20117;-67
2022/08/09 12:33:59;;;;;;;1.13;0.50;;;28.90;39.10;;;;;;5006603;28;20100;-66
2022/08/09 12:36:25;;;;;;;0.85;0.50;;;29.00;38.90;;;;;;5000296;28;20034;-66
2022/08/09 12:38:53;;;;;;;0.55;0.50;;;28.90;38.30;;;;;;5005188;28;20069;-66
2022/08/09 12:41:30;;;;;;;1.23;0.68;;;29.10;38.10;;;;;;5000133;28;20026;-67
2022/08/09 12:43:57;;;;;;;1.13;0.50;;;29.10;38.10;;;;;;5002596;28;20033;-66
2022/08/09 12:46:24;;;;;;;0.47;0.35;;;29.20;38.00;;;;;;5002060;28;20377;-66
2022/08/09 12:48:52;;;;;;;1.63;0.60;;;29.50;37.90;;;;;;5002290;28;20018;-66
2022/08/09 12:51:20;;;;;;;0.75;0.40;;;29.10;36.60;;;;;;4997199;28;20033;-66
2022/08/09 12:54:02;;;;;;;1.60;0.50;;;29.00;37.20;;;;;;5002006;28;20490;-65